createdAt,value
2018-10-03T00:00:01.529Z,781.66
2018-10-03T00:00:05.621Z,781.67
2018-10-03T00:00:09.609Z,781.66
2018-10-03T00:00:13.822Z,781.69
2018-10-03T00:00:17.914Z,781.67
2018-10-03T00:00:22.007Z,781.66
2018-10-03T00:00:26.321Z,781.72
2018-10-03T00:00:30.530Z,781.7
2018-10-03T00:00:34.738Z,781.72
2018-10-03T00:00:38.833Z,781.73
2018-10-03T00:00:43.143Z,781.7
2018-10-03T00:00:47.454Z,781.7
2018-10-03T00:00:51.758Z,781.71
2018-10-03T00:00:55.745Z,781.73
2018-10-03T00:01:00.052Z,781.71
2018-10-03T00:01:04.149Z,781.71
2018-10-03T00:01:08.351Z,781.76
2018-10-03T00:01:12.671Z,781.74
2018-10-03T00:01:16.976Z,781.75
2018-10-03T00:01:20.961Z,781.73
2018-10-03T00:01:25.157Z,781.77
2018-10-03T00:01:29.265Z,781.77
2018-10-03T00:01:33.366Z,781.76
2018-10-03T00:01:37.575Z,781.78
2018-10-03T00:01:41.889Z,781.72
2018-10-03T00:01:46.090Z,781.74
2018-10-03T00:01:50.197Z,781.76
2018-10-03T00:01:54.296Z,781.75
2018-10-03T00:01:58.392Z,781.79
2018-10-03T00:02:02.707Z,781.77
2018-10-03T00:02:07.020Z,781.74
2018-10-03T00:02:11.123Z,781.75
2018-10-03T00:02:15.324Z,781.74
2018-10-03T00:02:19.417Z,781.79
2018-10-03T00:02:23.512Z,781.8
2018-10-03T00:02:27.611Z,781.81
2018-10-03T00:02:31.807Z,781.81
2018-10-03T00:02:36.011Z,781.86
2018-10-03T00:02:40.317Z,781.82
2018-10-03T00:02:44.517Z,781.79
2018-10-03T00:02:48.502Z,781.79
2018-10-03T00:02:52.701Z,781.78
2018-10-03T00:02:56.902Z,781.8
2018-10-03T00:03:01.229Z,781.82
2018-10-03T00:03:05.370Z,781.79
2018-10-03T00:03:09.470Z,781.78
2018-10-03T00:03:13.367Z,781.8
2018-10-03T00:03:17.681Z,781.83
2018-10-03T00:03:21.684Z,781.76
2018-10-03T00:03:25.934Z,781.79
2018-10-03T00:03:30.026Z,781.83
2018-10-03T00:03:34.226Z,781.8
2018-10-03T00:03:38.213Z,781.8
2018-10-03T00:03:42.200Z,781.78
2018-10-03T00:03:46.404Z,781.81
2018-10-03T00:03:50.603Z,781.79
2018-10-03T00:03:54.905Z,781.81
2018-10-03T00:03:59.108Z,781.78
2018-10-03T00:04:03.095Z,781.81
2018-10-03T00:04:07.194Z,781.8
2018-10-03T00:04:11.289Z,781.82
2018-10-03T00:04:15.390Z,781.77
2018-10-03T00:04:19.703Z,781.76
2018-10-03T00:04:23.793Z,781.76
2018-10-03T00:04:27.777Z,781.74
2018-10-03T00:04:31.976Z,781.84
2018-10-03T00:04:36.073Z,781.81
2018-10-03T00:04:40.168Z,781.8
2018-10-03T00:04:44.151Z,781.83
2018-10-03T00:04:48.244Z,781.78
2018-10-03T00:04:52.447Z,781.81
2018-10-03T00:04:56.645Z,781.82
2018-10-03T00:05:00.953Z,781.87
2018-10-03T00:05:05.209Z,781.86
2018-10-03T00:05:09.196Z,781.86
2018-10-03T00:05:13.085Z,781.81
2018-10-03T00:05:17.290Z,781.81
2018-10-03T00:05:21.275Z,781.84
2018-10-03T00:05:25.264Z,781.89
2018-10-03T00:05:29.596Z,781.85
2018-10-03T00:05:33.371Z,781.9
2018-10-03T00:05:37.569Z,781.91
2018-10-03T00:05:41.770Z,781.83
2018-10-03T00:05:45.870Z,781.83
2018-10-03T00:05:50.076Z,781.89
2018-10-03T00:05:54.308Z,781.87
2018-10-03T00:05:58.616Z,781.88
2018-10-03T00:06:02.820Z,781.9
2018-10-03T00:06:06.861Z,781.91
2018-10-03T00:06:10.854Z,781.9
2018-10-03T00:06:14.955Z,781.93
2018-10-03T00:06:19.059Z,781.91
2018-10-03T00:06:23.268Z,781.9
2018-10-03T00:06:27.574Z,781.84
2018-10-03T00:06:31.891Z,781.91
2018-10-03T00:06:36.098Z,781.95
2018-10-03T00:06:40.353Z,781.93
2018-10-03T00:06:44.558Z,781.94
2018-10-03T00:06:48.759Z,781.94
2018-10-03T00:06:52.854Z,781.93
2018-10-03T00:06:57.055Z,781.94
2018-10-03T00:07:01.362Z,781.97
2018-10-03T00:07:05.578Z,781.96
2018-10-03T00:07:09.779Z,781.94
2018-10-03T00:07:13.994Z,781.97
2018-10-03T00:07:18.190Z,781.95
2018-10-03T00:07:22.390Z,781.97
2018-10-03T00:07:26.492Z,782
2018-10-03T00:07:30.807Z,781.96
2018-10-03T00:07:35.118Z,781.97
2018-10-03T00:07:39.323Z,782
2018-10-03T00:07:43.308Z,781.99
2018-10-03T00:07:47.509Z,781.92
2018-10-03T00:07:51.708Z,781.93
2018-10-03T00:07:55.806Z,781.95
2018-10-03T00:08:00.021Z,781.94
2018-10-03T00:08:04.384Z,781.94
2018-10-03T00:08:08.368Z,781.95
2018-10-03T00:08:12.364Z,781.97
2018-10-03T00:08:16.457Z,781.94
2018-10-03T00:08:20.550Z,781.92
2018-10-03T00:08:24.748Z,781.91
2018-10-03T00:08:28.735Z,781.91
2018-10-03T00:08:32.938Z,781.92
2018-10-03T00:08:37.028Z,781.92
2018-10-03T00:08:41.120Z,781.93
2018-10-03T00:08:45.324Z,781.96
2018-10-03T00:08:49.630Z,781.99
2018-10-03T00:08:53.846Z,781.96
2018-10-03T00:08:58.049Z,782
2018-10-03T00:09:02.256Z,781.95
2018-10-03T00:09:06.452Z,781.95
2018-10-03T00:09:10.674Z,781.98
2018-10-03T00:09:14.989Z,781.97
2018-10-03T00:09:19.294Z,781.9
2018-10-03T00:09:23.434Z,781.97
2018-10-03T00:09:27.583Z,781.96
2018-10-03T00:09:31.682Z,781.99
2018-10-03T00:09:36.001Z,782.02
2018-10-03T00:09:40.201Z,782.02
2018-10-03T00:09:44.521Z,781.98
2018-10-03T00:09:48.620Z,782.01
2018-10-03T00:09:52.817Z,782.02
2018-10-03T00:09:57.132Z,782
2018-10-03T00:10:01.333Z,781.97
2018-10-03T00:10:05.539Z,782.03
2018-10-03T00:10:09.638Z,782.02
2018-10-03T00:10:13.517Z,782.01
2018-10-03T00:10:17.719Z,782.01
2018-10-03T00:10:21.708Z,782.02
2018-10-03T00:10:25.920Z,782.03
2018-10-03T00:10:30.225Z,782.01
2018-10-03T00:10:34.538Z,782.03
2018-10-03T00:10:38.632Z,782.04
2018-10-03T00:10:42.727Z,782.02
2018-10-03T00:10:46.612Z,782.05
2018-10-03T00:10:50.703Z,782.04
2018-10-03T00:10:54.474Z,781.99
2018-10-03T00:10:58.680Z,782.05
2018-10-03T00:11:02.719Z,782.04
2018-10-03T00:11:06.711Z,782.03
2018-10-03T00:11:10.585Z,782.07
2018-10-03T00:11:14.678Z,782.05
2018-10-03T00:11:18.775Z,782.09
2018-10-03T00:11:22.970Z,782.07
2018-10-03T00:11:27.071Z,782.06
2018-10-03T00:11:31.273Z,782.01
2018-10-03T00:11:35.589Z,782.04
2018-10-03T00:11:39.911Z,782.08
2018-10-03T00:11:44.116Z,782.07
2018-10-03T00:11:48.429Z,782.1
2018-10-03T00:11:52.639Z,782.09
2018-10-03T00:11:56.842Z,782.05
2018-10-03T00:12:01.152Z,782.08
2018-10-03T00:12:05.357Z,782.05
2018-10-03T00:12:09.238Z,782.06
2018-10-03T00:12:13.328Z,782.07
2018-10-03T00:12:17.533Z,782.06
2018-10-03T00:12:21.633Z,782.05
2018-10-03T00:12:25.834Z,782.07
2018-10-03T00:12:30.035Z,782.07
2018-10-03T00:12:34.133Z,782.07
2018-10-03T00:12:38.233Z,782.04
2018-10-03T00:12:42.438Z,782.02
2018-10-03T00:12:46.530Z,782.07
2018-10-03T00:12:50.625Z,782.02
2018-10-03T00:12:54.933Z,782.07
2018-10-03T00:12:59.133Z,782.05
2018-10-03T00:13:03.115Z,782.05
2018-10-03T00:13:07.429Z,782.06
2018-10-03T00:13:11.621Z,782.08
2018-10-03T00:13:15.829Z,782.04
2018-10-03T00:13:20.028Z,782.01
2018-10-03T00:13:24.011Z,782.07
2018-10-03T00:13:28.107Z,782.07
2018-10-03T00:13:32.209Z,782.04
2018-10-03T00:13:36.197Z,782.03
2018-10-03T00:13:40.289Z,782.04
2018-10-03T00:13:44.382Z,782.04
2018-10-03T00:13:48.583Z,782.06
2018-10-03T00:13:52.673Z,782.05
2018-10-03T00:13:56.770Z,782.02
2018-10-03T00:14:01.080Z,782
2018-10-03T00:14:05.225Z,781.98
2018-10-03T00:14:09.321Z,782.03
2018-10-03T00:14:13.629Z,782
2018-10-03T00:14:17.503Z,782.05
2018-10-03T00:14:21.696Z,782.03
2018-10-03T00:14:25.788Z,782.03
2018-10-03T00:14:29.877Z,782.02
2018-10-03T00:14:34.079Z,782.03
2018-10-03T00:14:37.965Z,782.03
2018-10-03T00:14:42.061Z,781.97
2018-10-03T00:14:46.160Z,781.97
2018-10-03T00:14:50.474Z,782.03
2018-10-03T00:14:54.780Z,782.01
2018-10-03T00:14:58.983Z,781.99
2018-10-03T00:15:03.076Z,781.97
2018-10-03T00:15:07.278Z,781.95
2018-10-03T00:15:11.493Z,782.02
2018-10-03T00:15:15.700Z,781.97
2018-10-03T00:15:19.690Z,781.99
2018-10-03T00:15:23.794Z,781.98
2018-10-03T00:15:27.997Z,781.96
2018-10-03T00:15:32.310Z,781.95
2018-10-03T00:15:36.627Z,781.96
2018-10-03T00:15:40.720Z,781.98
2018-10-03T00:15:44.817Z,781.98
2018-10-03T00:15:49.128Z,781.98
2018-10-03T00:15:53.225Z,781.97
2018-10-03T00:15:57.318Z,781.98
2018-10-03T00:16:01.310Z,781.99
2018-10-03T00:16:05.614Z,781.95
2018-10-03T00:16:09.709Z,781.93
2018-10-03T00:16:13.803Z,781.93
2018-10-03T00:16:18.113Z,781.99
2018-10-03T00:16:22.323Z,781.94
2018-10-03T00:16:26.519Z,781.97
2018-10-03T00:16:30.612Z,781.92
2018-10-03T00:16:34.707Z,781.96
2018-10-03T00:16:38.808Z,781.93
2018-10-03T00:16:43.122Z,781.95
2018-10-03T00:16:47.221Z,781.94
2018-10-03T00:16:51.327Z,781.95
2018-10-03T00:16:55.537Z,781.93
2018-10-03T00:16:59.629Z,781.95
2018-10-03T00:17:03.728Z,781.92
2018-10-03T00:17:08.041Z,781.92
2018-10-03T00:17:12.139Z,781.98
2018-10-03T00:17:16.335Z,781.93
2018-10-03T00:17:20.543Z,781.95
2018-10-03T00:17:24.860Z,781.94
2018-10-03T00:17:28.848Z,781.91
2018-10-03T00:17:33.178Z,781.96
2018-10-03T00:17:37.275Z,781.93
2018-10-03T00:17:41.262Z,781.87
2018-10-03T00:17:45.250Z,781.88
2018-10-03T00:17:49.340Z,781.93
2018-10-03T00:17:53.325Z,781.92
2018-10-03T00:17:57.639Z,781.89
2018-10-03T00:18:01.840Z,781.91
2018-10-03T00:18:06.042Z,781.88
2018-10-03T00:18:10.135Z,781.86
2018-10-03T00:18:14.449Z,781.92
2018-10-03T00:18:18.542Z,781.91
2018-10-03T00:18:22.531Z,781.89
2018-10-03T00:18:26.633Z,781.89
2018-10-03T00:18:30.673Z,781.88
2018-10-03T00:18:34.768Z,781.88
2018-10-03T00:18:38.970Z,781.91
2018-10-03T00:18:43.233Z,781.9
2018-10-03T00:18:47.436Z,781.89
2018-10-03T00:18:51.759Z,781.85
2018-10-03T00:18:56.071Z,781.9
2018-10-03T00:19:00.274Z,781.87
2018-10-03T00:19:04.380Z,781.85
2018-10-03T00:19:08.483Z,781.88
2018-10-03T00:19:12.691Z,781.89
2018-10-03T00:19:16.788Z,781.86
2018-10-03T00:19:20.887Z,781.85
2018-10-03T00:19:25.200Z,781.84
2018-10-03T00:19:29.394Z,781.82
2018-10-03T00:19:33.601Z,781.82
2018-10-03T00:19:37.923Z,781.77
2018-10-03T00:19:41.907Z,781.78
2018-10-03T00:19:46.212Z,781.8
2018-10-03T00:19:50.422Z,781.82
2018-10-03T00:19:54.638Z,781.77
2018-10-03T00:19:58.729Z,781.83
2018-10-03T00:20:02.875Z,781.78
2018-10-03T00:20:06.866Z,781.79
2018-10-03T00:20:11.178Z,781.79
2018-10-03T00:20:15.385Z,781.76
2018-10-03T00:20:19.691Z,781.79
2018-10-03T00:20:23.680Z,781.72
2018-10-03T00:20:27.989Z,781.75
2018-10-03T00:20:32.198Z,781.75
2018-10-03T00:20:36.453Z,781.74
2018-10-03T00:20:40.551Z,781.8
2018-10-03T00:20:44.853Z,781.74
2018-10-03T00:20:48.945Z,781.74
2018-10-03T00:20:53.043Z,781.74
2018-10-03T00:20:57.245Z,781.74
2018-10-03T00:21:01.567Z,781.72
2018-10-03T00:21:05.663Z,781.75
2018-10-03T00:21:09.870Z,781.73
2018-10-03T00:21:14.070Z,781.73
2018-10-03T00:21:18.269Z,781.69
2018-10-03T00:21:22.574Z,781.67
2018-10-03T00:21:26.785Z,781.69
2018-10-03T00:21:31.104Z,781.68
2018-10-03T00:21:35.407Z,781.66
2018-10-03T00:21:39.497Z,781.64
2018-10-03T00:21:43.606Z,781.67
2018-10-03T00:21:47.699Z,781.67
2018-10-03T00:21:51.901Z,781.65
2018-10-03T00:21:56.211Z,781.65
2018-10-03T00:22:00.317Z,781.59
2018-10-03T00:22:04.524Z,781.61
2018-10-03T00:22:08.729Z,781.59
2018-10-03T00:22:12.940Z,781.58
2018-10-03T00:22:17.245Z,781.62
2018-10-03T00:22:21.443Z,781.57
2018-10-03T00:22:25.549Z,781.64
2018-10-03T00:22:29.645Z,781.63
2018-10-03T00:22:33.851Z,781.63
2018-10-03T00:22:38.159Z,781.62
2018-10-03T00:22:42.252Z,781.59
2018-10-03T00:22:46.449Z,781.6
2018-10-03T00:22:50.661Z,781.57
2018-10-03T00:22:54.858Z,781.57
2018-10-03T00:22:59.162Z,781.61
2018-10-03T00:23:03.487Z,781.62
2018-10-03T00:23:07.697Z,781.64
2018-10-03T00:23:12.176Z,781.63
2018-10-03T00:23:16.840Z,781.61
2018-10-03T00:23:21.437Z,781.58
2018-10-03T00:23:26.480Z,781.6
2018-10-03T00:23:31.463Z,781.62
2018-10-03T00:23:35.781Z,781.56
2018-10-03T00:23:40.099Z,781.56
2018-10-03T00:23:44.410Z,781.54
2018-10-03T00:23:48.713Z,781.51
2018-10-03T00:23:52.919Z,781.62
2018-10-03T00:23:57.169Z,781.58
2018-10-03T00:24:01.373Z,781.58
2018-10-03T00:24:05.792Z,781.54
2018-10-03T00:24:09.784Z,781.53
2018-10-03T00:24:13.775Z,781.55
2018-10-03T00:24:17.869Z,781.51
2018-10-03T00:24:22.066Z,781.53
2018-10-03T00:24:26.394Z,781.51
2018-10-03T00:24:30.590Z,781.5
2018-10-03T00:24:34.792Z,781.49
2018-10-03T00:24:39.000Z,781.54
2018-10-03T00:24:43.247Z,781.5
2018-10-03T00:24:47.559Z,781.53
2018-10-03T00:24:51.870Z,781.52
2018-10-03T00:24:56.187Z,781.5
2018-10-03T00:25:00.494Z,781.52
2018-10-03T00:25:04.493Z,781.56
2018-10-03T00:25:08.697Z,781.52
2018-10-03T00:25:12.686Z,781.48
2018-10-03T00:25:17.007Z,781.46
2018-10-03T00:25:21.121Z,781.52
2018-10-03T00:25:25.216Z,781.48
2018-10-03T00:25:29.430Z,781.52
2018-10-03T00:25:33.634Z,781.52
2018-10-03T00:25:37.941Z,781.51
2018-10-03T00:25:42.143Z,781.52
2018-10-03T00:25:46.355Z,781.53
2018-10-03T00:25:50.569Z,781.51
2018-10-03T00:25:54.876Z,781.5
2018-10-03T00:25:59.188Z,781.54
2018-10-03T00:26:03.437Z,781.49
2018-10-03T00:26:07.741Z,781.55
2018-10-03T00:26:11.733Z,781.54
2018-10-03T00:26:15.835Z,781.55
2018-10-03T00:26:20.142Z,781.55
2018-10-03T00:26:24.354Z,781.56
2018-10-03T00:26:28.566Z,781.54
2018-10-03T00:26:32.660Z,781.53
2018-10-03T00:26:36.869Z,781.56
2018-10-03T00:26:41.191Z,781.49
2018-10-03T00:26:45.393Z,781.54
2018-10-03T00:26:49.493Z,781.53
2018-10-03T00:26:53.696Z,781.54
2018-10-03T00:26:57.996Z,781.49
2018-10-03T00:27:02.137Z,781.54
2018-10-03T00:27:06.140Z,781.55
2018-10-03T00:27:10.352Z,781.52
2018-10-03T00:27:14.453Z,781.48
2018-10-03T00:27:18.443Z,781.54
2018-10-03T00:27:22.641Z,781.5
2018-10-03T00:27:26.849Z,781.51
2018-10-03T00:27:31.157Z,781.52
2018-10-03T00:27:35.359Z,781.5
2018-10-03T00:27:39.678Z,781.52
2018-10-03T00:27:43.884Z,781.46
2018-10-03T00:27:48.095Z,781.53
2018-10-03T00:27:52.299Z,781.51
2018-10-03T00:27:56.611Z,781.53
2018-10-03T00:28:00.812Z,781.51
2018-10-03T00:28:05.106Z,781.52
2018-10-03T00:28:09.219Z,781.52
2018-10-03T00:28:13.537Z,781.51
2018-10-03T00:28:17.634Z,781.47
2018-10-03T00:28:21.827Z,781.48
2018-10-03T00:28:26.136Z,781.48
2018-10-03T00:28:30.333Z,781.47
2018-10-03T00:28:34.534Z,781.48
2018-10-03T00:28:38.844Z,781.48
2018-10-03T00:28:43.053Z,781.47
2018-10-03T00:28:47.361Z,781.46
2018-10-03T00:28:51.568Z,781.52
2018-10-03T00:28:55.769Z,781.52
2018-10-03T00:28:59.971Z,781.56
2018-10-03T00:29:04.183Z,781.53
2018-10-03T00:29:08.491Z,781.54
2018-10-03T00:29:12.694Z,781.55
2018-10-03T00:29:16.683Z,781.52
2018-10-03T00:29:20.892Z,781.54
2018-10-03T00:29:25.091Z,781.54
2018-10-03T00:29:29.186Z,781.52
2018-10-03T00:29:33.502Z,781.55
2018-10-03T00:29:37.818Z,781.56
2018-10-03T00:29:42.014Z,781.5
2018-10-03T00:29:46.332Z,781.56
2018-10-03T00:29:50.535Z,781.5
2018-10-03T00:29:54.518Z,781.5
2018-10-03T00:29:58.820Z,781.5
2018-10-03T00:30:02.921Z,781.51
2018-10-03T00:30:07.127Z,781.54
2018-10-03T00:30:11.330Z,781.5
2018-10-03T00:30:15.527Z,781.46
2018-10-03T00:30:19.616Z,781.51
2018-10-03T00:30:23.820Z,781.5
2018-10-03T00:30:28.139Z,781.5
2018-10-03T00:30:32.343Z,781.51
2018-10-03T00:30:36.550Z,781.5
2018-10-03T00:30:40.856Z,781.48
2018-10-03T00:30:45.055Z,781.47
2018-10-03T00:30:49.255Z,781.49
2018-10-03T00:30:53.455Z,781.45
2018-10-03T00:30:57.769Z,781.46
2018-10-03T00:31:01.972Z,781.47
2018-10-03T00:31:05.851Z,781.46
2018-10-03T00:31:09.941Z,781.43
2018-10-03T00:31:14.039Z,781.45
2018-10-03T00:31:18.252Z,781.43
2018-10-03T00:31:22.346Z,781.45
2018-10-03T00:31:26.552Z,781.47
2018-10-03T00:31:30.865Z,781.37
2018-10-03T00:31:35.067Z,781.44
2018-10-03T00:31:39.383Z,781.42
2018-10-03T00:31:43.577Z,781.45
2018-10-03T00:31:47.669Z,781.46
2018-10-03T00:31:51.876Z,781.42
2018-10-03T00:31:56.080Z,781.45
2018-10-03T00:32:00.391Z,781.44
2018-10-03T00:32:04.491Z,781.41
2018-10-03T00:32:08.693Z,781.43
2018-10-03T00:32:13.005Z,781.41
2018-10-03T00:32:17.205Z,781.45
2018-10-03T00:32:21.506Z,781.42
2018-10-03T00:32:25.705Z,781.38
2018-10-03T00:32:30.011Z,781.44
2018-10-03T00:32:34.375Z,781.44
2018-10-03T00:32:38.589Z,781.45
2018-10-03T00:32:42.901Z,781.42
2018-10-03T00:32:47.095Z,781.44
2018-10-03T00:32:51.295Z,781.41
2018-10-03T00:32:55.603Z,781.42
2018-10-03T00:32:59.907Z,781.45
2018-10-03T00:33:04.157Z,781.44
2018-10-03T00:33:08.356Z,781.41
2018-10-03T00:33:12.448Z,781.43
2018-10-03T00:33:16.759Z,781.48
2018-10-03T00:33:20.956Z,781.43
2018-10-03T00:33:25.060Z,781.47
2018-10-03T00:33:29.269Z,781.46
2018-10-03T00:33:33.467Z,781.45
2018-10-03T00:33:37.675Z,781.44
2018-10-03T00:33:41.771Z,781.43
2018-10-03T00:33:45.977Z,781.45
2018-10-03T00:33:50.185Z,781.4
2018-10-03T00:33:54.388Z,781.45
2018-10-03T00:33:58.711Z,781.46
2018-10-03T00:34:02.911Z,781.45
2018-10-03T00:34:07.162Z,781.43
2018-10-03T00:34:11.473Z,781.39
2018-10-03T00:34:15.673Z,781.4
2018-10-03T00:34:19.873Z,781.44
2018-10-03T00:34:24.181Z,781.46
2018-10-03T00:34:28.192Z,781.45
2018-10-03T00:34:32.506Z,781.42
2018-10-03T00:34:36.703Z,781.44
2018-10-03T00:34:40.813Z,781.46
2018-10-03T00:34:44.910Z,781.43
2018-10-03T00:34:49.222Z,781.42
2018-10-03T00:34:53.530Z,781.46
2018-10-03T00:34:57.723Z,781.46
2018-10-03T00:35:02.037Z,781.46
2018-10-03T00:35:06.353Z,781.44
2018-10-03T00:35:10.448Z,781.44
2018-10-03T00:35:14.546Z,781.46
2018-10-03T00:35:18.849Z,781.46
2018-10-03T00:35:23.044Z,781.45
2018-10-03T00:35:27.361Z,781.43
2018-10-03T00:35:31.459Z,781.42
2018-10-03T00:35:35.551Z,781.47
2018-10-03T00:35:39.641Z,781.46
2018-10-03T00:35:43.742Z,781.45
2018-10-03T00:35:48.051Z,781.4
2018-10-03T00:35:52.147Z,781.47
2018-10-03T00:35:56.237Z,781.49
2018-10-03T00:36:00.436Z,781.42
2018-10-03T00:36:04.643Z,781.48
2018-10-03T00:36:08.954Z,781.46
2018-10-03T00:36:13.269Z,781.46
2018-10-03T00:36:17.473Z,781.5
2018-10-03T00:36:21.781Z,781.48
2018-10-03T00:36:26.138Z,781.49
2018-10-03T00:36:30.231Z,781.48
2018-10-03T00:36:34.318Z,781.46
2018-10-03T00:36:38.623Z,781.45
2018-10-03T00:36:42.719Z,781.44
2018-10-03T00:36:47.033Z,781.46
2018-10-03T00:36:51.127Z,781.42
2018-10-03T00:36:55.118Z,781.46
2018-10-03T00:36:59.433Z,781.48
2018-10-03T00:37:03.852Z,781.47
2018-10-03T00:37:08.163Z,781.45
2018-10-03T00:37:12.263Z,781.49
2018-10-03T00:37:16.575Z,781.46
2018-10-03T00:37:20.832Z,781.46
2018-10-03T00:37:25.146Z,781.46
2018-10-03T00:37:29.251Z,781.44
2018-10-03T00:37:33.461Z,781.47
2018-10-03T00:37:37.663Z,781.47
2018-10-03T00:37:41.871Z,781.46
2018-10-03T00:37:46.184Z,781.43
2018-10-03T00:37:50.497Z,781.45
2018-10-03T00:37:54.698Z,781.42
2018-10-03T00:37:58.903Z,781.41
2018-10-03T00:38:02.997Z,781.41
2018-10-03T00:38:07.199Z,781.41
2018-10-03T00:38:11.514Z,781.4
2018-10-03T00:38:15.822Z,781.4
2018-10-03T00:38:19.912Z,781.4
2018-10-03T00:38:24.012Z,781.43
2018-10-03T00:38:28.319Z,781.43
2018-10-03T00:38:32.416Z,781.46
2018-10-03T00:38:36.616Z,781.44
2018-10-03T00:38:40.929Z,781.46
2018-10-03T00:38:45.133Z,781.41
2018-10-03T00:38:49.334Z,781.42
2018-10-03T00:38:53.654Z,781.42
2018-10-03T00:38:57.863Z,781.44
2018-10-03T00:39:01.740Z,781.42
2018-10-03T00:39:06.098Z,781.44
2018-10-03T00:39:10.321Z,781.43
2018-10-03T00:39:14.517Z,781.38
2018-10-03T00:39:18.827Z,781.36
2018-10-03T00:39:23.029Z,781.39
2018-10-03T00:39:27.128Z,781.42
2018-10-03T00:39:31.120Z,781.42
2018-10-03T00:39:35.427Z,781.41
2018-10-03T00:39:39.743Z,781.42
2018-10-03T00:39:44.059Z,781.42
2018-10-03T00:39:48.362Z,781.35
2018-10-03T00:39:52.566Z,781.37
2018-10-03T00:39:56.770Z,781.39
2018-10-03T00:40:01.080Z,781.42
2018-10-03T00:40:05.304Z,781.38
2018-10-03T00:40:09.614Z,781.41
2018-10-03T00:40:13.822Z,781.4
2018-10-03T00:40:18.140Z,781.4
2018-10-03T00:40:22.230Z,781.41
2018-10-03T00:40:26.554Z,781.4
2018-10-03T00:40:30.654Z,781.38
2018-10-03T00:40:34.867Z,781.4
2018-10-03T00:40:38.958Z,781.41
2018-10-03T00:40:43.062Z,781.41
2018-10-03T00:40:47.271Z,781.4
2018-10-03T00:40:51.576Z,781.44
2018-10-03T00:40:55.714Z,781.42
2018-10-03T00:40:59.913Z,781.44
2018-10-03T00:41:04.109Z,781.45
2018-10-03T00:41:08.419Z,781.44
2018-10-03T00:41:12.729Z,781.39
2018-10-03T00:41:17.038Z,781.44
2018-10-03T00:41:21.131Z,781.45
2018-10-03T00:41:25.225Z,781.46
2018-10-03T00:41:29.538Z,781.44
2018-10-03T00:41:33.841Z,781.46
2018-10-03T00:41:38.050Z,781.46
2018-10-03T00:41:42.363Z,781.44
2018-10-03T00:41:46.566Z,781.44
2018-10-03T00:41:50.661Z,781.42
2018-10-03T00:41:55.013Z,781.45
2018-10-03T00:41:59.211Z,781.44
2018-10-03T00:42:03.502Z,781.43
2018-10-03T00:42:07.708Z,781.44
2018-10-03T00:42:12.031Z,781.44
2018-10-03T00:42:16.227Z,781.44
2018-10-03T00:42:20.435Z,781.45
2018-10-03T00:42:24.755Z,781.38
2018-10-03T00:42:28.953Z,781.44
2018-10-03T00:42:33.158Z,781.45
2018-10-03T00:42:37.359Z,781.44
2018-10-03T00:42:41.560Z,781.39
2018-10-03T00:42:45.762Z,781.44
2018-10-03T00:42:50.067Z,781.44
2018-10-03T00:42:54.269Z,781.46
2018-10-03T00:42:58.470Z,781.43
2018-10-03T00:43:02.560Z,781.44
2018-10-03T00:43:06.674Z,781.4
2018-10-03T00:43:10.876Z,781.43
2018-10-03T00:43:15.021Z,781.42
2018-10-03T00:43:19.011Z,781.43
2018-10-03T00:43:23.211Z,781.47
2018-10-03T00:43:27.415Z,781.4
2018-10-03T00:43:31.519Z,781.47
2018-10-03T00:43:35.826Z,781.42
2018-10-03T00:43:40.146Z,781.45
2018-10-03T00:43:44.349Z,781.39
2018-10-03T00:43:48.551Z,781.45
2018-10-03T00:43:52.862Z,781.44
2018-10-03T00:43:57.061Z,781.41
2018-10-03T00:44:01.374Z,781.42
2018-10-03T00:44:05.583Z,781.44
2018-10-03T00:44:09.893Z,781.46
2018-10-03T00:44:14.097Z,781.39
2018-10-03T00:44:18.294Z,781.38
2018-10-03T00:44:22.617Z,781.44
2018-10-03T00:44:26.843Z,781.43
2018-10-03T00:44:31.044Z,781.43
2018-10-03T00:44:35.352Z,781.43
2018-10-03T00:44:39.451Z,781.43
2018-10-03T00:44:43.653Z,781.42
2018-10-03T00:44:47.960Z,781.41
2018-10-03T00:44:52.170Z,781.41
2018-10-03T00:44:56.262Z,781.37
2018-10-03T00:45:00.355Z,781.38
2018-10-03T00:45:04.676Z,781.43
2018-10-03T00:45:08.995Z,781.39
2018-10-03T00:45:13.192Z,781.43
2018-10-03T00:45:17.509Z,781.4
2018-10-03T00:45:21.705Z,781.4
2018-10-03T00:45:25.911Z,781.41
2018-10-03T00:45:30.112Z,781.43
2018-10-03T00:45:34.205Z,781.4
2018-10-03T00:45:38.413Z,781.41
2018-10-03T00:45:42.728Z,781.41
2018-10-03T00:45:47.038Z,781.42
2018-10-03T00:45:51.347Z,781.4
2018-10-03T00:45:55.336Z,781.41
2018-10-03T00:45:59.646Z,781.41
2018-10-03T00:46:03.743Z,781.44
2018-10-03T00:46:08.052Z,781.44
2018-10-03T00:46:12.357Z,781.42
2018-10-03T00:46:16.505Z,781.43
2018-10-03T00:46:20.699Z,781.5
2018-10-03T00:46:24.907Z,781.46
2018-10-03T00:46:29.003Z,781.45
2018-10-03T00:46:33.312Z,781.47
2018-10-03T00:46:37.631Z,781.42
2018-10-03T00:46:41.840Z,781.45
2018-10-03T00:46:46.042Z,781.46
2018-10-03T00:46:50.027Z,781.43
2018-10-03T00:46:54.244Z,781.47
2018-10-03T00:46:58.550Z,781.39
2018-10-03T00:47:02.762Z,781.4
2018-10-03T00:47:07.073Z,781.41
2018-10-03T00:47:11.381Z,781.44
2018-10-03T00:47:15.688Z,781.44
2018-10-03T00:47:19.887Z,781.45
2018-10-03T00:47:24.011Z,781.43
2018-10-03T00:47:28.105Z,781.43
2018-10-03T00:47:32.199Z,781.34
2018-10-03T00:47:36.303Z,781.38
2018-10-03T00:47:40.512Z,781.44
2018-10-03T00:47:44.716Z,781.44
2018-10-03T00:47:49.023Z,781.46
2018-10-03T00:47:53.223Z,781.42
2018-10-03T00:47:57.314Z,781.42
2018-10-03T00:48:01.614Z,781.42
2018-10-03T00:48:05.816Z,781.46
2018-10-03T00:48:10.134Z,781.45
2018-10-03T00:48:14.484Z,781.41
2018-10-03T00:48:18.799Z,781.4
2018-10-03T00:48:22.902Z,781.4
2018-10-03T00:48:27.213Z,781.42
2018-10-03T00:48:31.412Z,781.43
2018-10-03T00:48:35.609Z,781.38
2018-10-03T00:48:39.599Z,781.37
2018-10-03T00:48:43.907Z,781.4
2018-10-03T00:48:48.000Z,781.39
2018-10-03T00:48:52.311Z,781.4
2018-10-03T00:48:56.408Z,781.39
2018-10-03T00:49:00.729Z,781.42
2018-10-03T00:49:05.044Z,781.42
2018-10-03T00:49:09.354Z,781.43
2018-10-03T00:49:13.558Z,781.41
2018-10-03T00:49:17.764Z,781.4
2018-10-03T00:49:21.972Z,781.37
2018-10-03T00:49:26.095Z,781.39
2018-10-03T00:49:30.321Z,781.36
2018-10-03T00:49:34.520Z,781.31
2018-10-03T00:49:38.723Z,781.32
2018-10-03T00:49:42.918Z,781.33
2018-10-03T00:49:47.229Z,781.38
2018-10-03T00:49:51.427Z,781.38
2018-10-03T00:49:55.643Z,781.39
2018-10-03T00:49:59.848Z,781.4
2018-10-03T00:50:03.948Z,781.39
2018-10-03T00:50:07.829Z,781.37
2018-10-03T00:50:12.031Z,781.4
2018-10-03T00:50:16.231Z,781.4
2018-10-03T00:50:20.323Z,781.43
2018-10-03T00:50:24.528Z,781.41
2018-10-03T00:50:28.782Z,781.4
2018-10-03T00:50:33.093Z,781.4
2018-10-03T00:50:37.295Z,781.46
2018-10-03T00:50:41.383Z,781.4
2018-10-03T00:50:45.596Z,781.42
2018-10-03T00:50:49.692Z,781.41
2018-10-03T00:50:53.999Z,781.44
2018-10-03T00:50:58.314Z,781.42
2018-10-03T00:51:02.776Z,781.46
2018-10-03T00:51:07.096Z,781.41
2018-10-03T00:51:11.418Z,781.47
2018-10-03T00:51:15.629Z,781.46
2018-10-03T00:51:19.636Z,781.45
2018-10-03T00:51:23.727Z,781.44
2018-10-03T00:51:27.932Z,781.44
2018-10-03T00:51:32.137Z,781.41
2018-10-03T00:51:36.342Z,781.4
2018-10-03T00:51:40.437Z,781.45
2018-10-03T00:51:44.744Z,781.41
2018-10-03T00:51:49.057Z,781.44
2018-10-03T00:51:53.257Z,781.43
2018-10-03T00:51:57.571Z,781.47
2018-10-03T00:52:01.924Z,781.48
2018-10-03T00:52:06.017Z,781.49
2018-10-03T00:52:10.376Z,781.46
2018-10-03T00:52:14.577Z,781.46
2018-10-03T00:52:18.773Z,781.48
2018-10-03T00:52:23.078Z,781.49
2018-10-03T00:52:27.389Z,781.47
2018-10-03T00:52:31.380Z,781.47